Time;durP1;ratioP1;P1;durP2;ratioP2;P2;SDS_P1;SDS_P2;PMS_P1;PMS_P2;Temp;Humidity;BMP_temperature;BMP_pressure;BME280_temperature;BME280_humidity;BME280_pressure;Samples;Min_cycle;Max_cycle;Signal;HPM_P1;HPM_P2
2022/01/15 00:02:03;;;;;;;6.80;3.60;;;;;;;7.02;65.73;99790.88;5021999;28;20041;-72
2022/01/15 00:04:29;;;;;;;9.45;4.53;;;;;;;7.11;66.09;99797.94;5022500;28;20053;-72
2022/01/15 00:06:54;;;;;;;8.43;3.83;;;;;;;7.20;65.83;99814.72;5022042;28;20331;-72
2022/01/15 00:09:20;;;;;;;9.90;3.72;;;;;;;7.24;65.15;99811.66;5022085;28;20034;-70
2022/01/15 00:11:45;;;;;;;9.00;3.95;;;;;;;7.23;64.96;99811.78;5022272;28;20029;-70
2022/01/15 00:14:12;;;;;;;9.68;3.72;;;;;;;7.25;65.48;99815.13;5022386;28;20061;-71
2022/01/15 00:16:46;;;;;;;9.20;4.10;;;;;;;7.24;65.06;99835.38;5021611;28;20022;-72
2022/01/15 00:19:14;;;;;;;11.15;4.28;;;;;;;7.21;65.34;99811.94;5022453;28;20442;-72
2022/01/15 00:21:40;;;;;;;9.82;3.97;;;;;;;7.27;65.38;99819.28;5022167;28;20050;-72
2022/01/15 00:24:06;;;;;;;7.28;3.85;;;;;;;7.29;65.52;99827.91;5022242;28;20099;-72
2022/01/15 00:26:32;;;;;;;8.32;4.07;;;;;;;7.35;65.53;99845.78;5022162;28;20033;-70
2022/01/15 00:28:58;;;;;;;8.07;3.55;;;;;;;7.29;64.86;99848.16;5022154;28;20022;-70
2022/01/15 00:31:23;;;;;;;9.23;4.10;;;;;;;7.31;65.38;99857.56;5022194;28;20315;-72
2022/01/15 00:33:49;;;;;;;7.22;3.67;;;;;;;7.23;65.96;99861.84;5021951;28;20030;-72
2022/01/15 00:36:16;;;;;;;10.68;4.32;;;;;;;7.30;65.89;99876.97;5022167;28;20377;-72
2022/01/15 00:38:41;;;;;;;8.07;3.42;;;;;;;7.22;65.45;99863.63;5022203;28;20230;-72
2022/01/15 00:41:07;;;;;;;7.35;4.00;;;;;;;7.24;65.60;99874.88;5022173;28;20030;-72
2022/01/15 00:43:32;;;;;;;8.25;4.25;;;;;;;7.24;65.42;99874.03;5022421;28;20030;-70
2022/01/15 00:45:58;;;;;;;8.70;4.10;;;;;;;7.11;65.94;99860.31;5021857;28;20315;-72
2022/01/15 00:48:24;;;;;;;10.57;4.18;;;;;;;7.31;65.90;99881.28;5021976;28;20049;-72
2022/01/15 00:50:50;;;;;;;9.45;4.63;;;;;;;7.24;66.02;99871.41;5021989;28;20026;-72
2022/01/15 00:53:15;;;;;;;13.30;4.78;;;;;;;7.14;66.07;99874.03;5005633;28;20049;-72
2022/01/15 00:55:41;;;;;;;7.55;4.13;;;;;;;7.18;66.04;99880.69;5008210;28;20022;-71
2022/01/15 00:58:06;;;;;;;9.13;4.30;;;;;;;7.23;65.96;99886.38;5008074;28;20311;-70
2022/01/15 01:00:32;;;;;;;12.60;4.40;;;;;;;7.21;66.90;99896.22;5025419;28;20033;-71
2022/01/15 01:02:57;;;;;;;8.07;4.13;;;;;;;7.19;67.10;99884.97;5025529;28;20034;-72
2022/01/15 01:05:23;;;;;;;6.85;4.00;;;;;;;7.10;67.13;99869.16;5022872;28;20247;-72
2022/01/15 01:07:49;;;;;;;8.80;4.18;;;;;;;7.24;66.49;99889.84;5016174;28;20089;-72
2022/01/15 01:13:14;;;;;;;7.70;3.78;;;;;;;7.12;66.79;99893.56;5014671;28;20065;-72
2022/01/15 01:23:39;;;;;;;7.35;3.90;;;;;;;7.04;68.01;99920.56;5013631;28;20038;-72
2022/01/15 01:26:24;;;;;;;9.48;4.03;;;;;;;6.99;68.23;99912.25;5014685;28;20025;-72
2022/01/15 01:28:59;;;;;;;7.68;3.60;;;;;;;7.01;68.46;99926.09;5012435;28;20025;-71
2022/01/15 01:31:34;;;;;;;7.90;3.33;;;;;;;7.00;68.33;99930.53;5015168;28;20375;-71
2022/01/15 01:34:07;;;;;;;7.78;3.67;;;;;;;6.83;68.58;99927.72;5016515;28;20347;-72
2022/01/15 01:39:23;;;;;;;8.07;3.80;;;;;;;7.03;67.71;99963.66;5007450;28;20034;-72
2022/01/15 01:42:06;;;;;;;8.48;4.32;;;;;;;6.94;68.64;99967.09;5013183;28;20046;-72
2022/01/15 01:44:38;;;;;;;6.45;3.67;;;;;;;6.87;68.00;99945.75;5021484;28;20097;-70
2022/01/15 01:47:07;;;;;;;7.85;4.03;;;;;;;7.03;68.40;99958.41;5015432;28;20372;-70
2022/01/15 01:49:32;;;;;;;8.40;3.97;;;;;;;6.93;68.79;99950.47;5020573;28;20059;-72
2022/01/15 01:51:58;;;;;;;9.05;4.18;;;;;;;7.01;68.35;99958.53;5022997;28;20089;-72
2022/01/15 01:54:23;;;;;;;8.88;4.40;;;;;;;6.83;68.51;99948.78;5013302;28;20046;-72
2022/01/15 01:56:50;;;;;;;9.00;4.45;;;;;;;6.90;69.37;99960.44;5012591;28;20105;-70
2022/01/15 01:59:16;;;;;;;9.40;4.68;;;;;;;6.96;69.24;99954.63;5013636;28;20045;-70
2022/01/15 02:01:42;;;;;;;8.32;4.38;;;;;;;6.94;69.18;99956.56;5014067;28;20030;-72
2022/01/15 02:04:08;;;;;;;7.07;3.90;;;;;;;7.01;68.91;99949.81;4998113;28;20041;-72
2022/01/15 02:06:35;;;;;;;9.27;4.35;;;;;;;6.97;69.33;99948.41;5013988;28;20026;-72
2022/01/15 02:09:04;;;;;;;8.40;4.25;;;;;;;6.89;68.86;99951.72;5014128;28;20037;-72
2022/01/15 02:11:29;;;;;;;7.78;4.22;;;;;;;6.90;69.16;99940.22;5012587;28;20033;-72
2022/01/15 02:13:55;;;;;;;9.93;4.13;;;;;;;6.84;69.26;99939.91;5014958;28;20030;-70
2022/01/15 02:16:21;;;;;;;7.13;3.88;;;;;;;7.00;69.05;99943.72;5012757;28;20038;-71
2022/01/15 02:18:52;;;;;;;6.85;3.17;;;;;;;7.03;69.00;99947.88;5010918;28;20034;-72
2022/01/15 02:23:51;;;;;;;7.38;3.42;;;;;;;6.95;69.73;99966.97;5019202;28;20042;-72
2022/01/15 02:26:23;;;;;;;7.22;4.03;;;;;;;6.87;70.44;99968.59;5022669;28;20319;-72
2022/01/15 02:28:55;;;;;;;8.77;4.30;;;;;;;6.96;69.78;99980.97;5017847;28;20030;-70
2022/01/15 02:31:22;;;;;;;9.23;4.25;;;;;;;6.78;70.74;99991.28;5011142;28;20362;-70
2022/01/15 02:33:49;;;;;;;9.93;4.43;;;;;;;6.91;70.11;99991.06;4991228;28;20026;-72
2022/01/15 02:36:18;;;;;;;7.50;4.43;;;;;;;6.92;70.53;99993.56;5011965;28;20072;-72
2022/01/15 02:38:44;;;;;;;11.43;4.50;;;;;;;6.96;70.25;100000.22;5012870;28;20038;-72
2022/01/15 02:41:10;;;;;;;9.57;4.97;;;;;;;6.89;70.95;100009.63;5010493;28;20235;-70
2022/01/15 02:43:36;;;;;;;9.85;4.75;;;;;;;6.96;70.91;100009.91;5011899;28;20045;-70
2022/01/15 02:48:44;;;;;;;11.55;4.70;;;;;;;6.87;71.30;99998.38;5019639;28;20075;-72
2022/01/15 02:51:11;;;;;;;7.10;4.03;;;;;;;6.80;71.22;99999.88;5014012;28;20021;-72
2022/01/15 02:53:36;;;;;;;9.07;4.47;;;;;;;6.81;71.00;99980.50;5011992;28;20335;-72
2022/01/15 02:56:02;;;;;;;7.88;4.68;;;;;;;6.80;71.46;100006.94;5012916;28;20030;-72
2022/01/15 02:58:28;;;;;;;9.15;4.80;;;;;;;6.81;71.18;99998.91;5012849;28;20041;-70
2022/01/15 03:00:53;;;;;;;8.55;5.28;;;;;;;6.75;71.63;99994.19;5010442;28;20030;-70
2022/01/15 03:03:19;;;;;;;9.45;4.40;;;;;;;6.92;71.28;100004.09;5021602;28;20434;-72
2022/01/15 03:05:46;;;;;;;10.77;4.63;;;;;;;6.90;71.57;100002.56;5020336;28;20041;-72
2022/01/15 03:08:11;;;;;;;9.32;4.63;;;;;;;6.69;72.28;100010.50;5009989;28;20037;-72
2022/01/15 03:10:37;;;;;;;12.68;4.75;;;;;;;6.81;71.82;100009.44;4991876;28;20041;-70
2022/01/15 03:13:10;;;;;;;8.90;4.78;;;;;;;6.80;72.21;100004.31;5013628;28;20101;-70
2022/01/15 03:15:35;;;;;;;10.23;5.27;;;;;;;6.81;72.04;100005.97;5012783;28;20088;-72
2022/01/15 03:18:01;;;;;;;12.10;5.38;;;;;;;6.70;72.90;99999.84;5011531;28;20211;-72
2022/01/15 03:20:26;;;;;;;10.32;5.43;;;;;;;6.62;72.56;100001.44;5013779;28;20255;-72
2022/01/15 03:22:52;;;;;;;12.82;5.32;;;;;;;6.83;72.23;100009.31;5012415;28;20027;-72
2022/01/15 03:25:17;;;;;;;11.10;5.47;;;;;;;6.72;72.86;100023.38;5015981;28;20032;-72
2022/01/15 03:27:43;;;;;;;10.18;5.45;;;;;;;6.71;72.70;100017.28;5013828;28;20025;-70
2022/01/15 03:30:10;;;;;;;12.70;5.13;;;;;;;6.68;73.18;100014.94;5012560;28;20336;-70
2022/01/15 03:32:37;;;;;;;12.80;5.03;;;;;;;6.73;72.45;100012.72;5015555;28;20033;-72
2022/01/15 03:35:03;;;;;;;10.90;5.20;;;;;;;6.69;72.72;100016.59;5021233;28;20072;-72
2022/01/15 03:37:28;;;;;;;9.88;4.75;;;;;;;6.68;72.39;100012.28;5014049;28;20018;-72
2022/01/15 03:39:54;;;;;;;10.40;5.13;;;;;;;6.62;72.88;100017.25;5013021;28;20033;-70
2022/01/15 03:42:19;;;;;;;11.13;5.63;;;;;;;6.63;72.51;100029.44;5010248;28;20022;-70
2022/01/15 03:44:47;;;;;;;9.18;4.95;;;;;;;6.79;72.43;100037.69;4999492;28;20030;-70
2022/01/15 03:47:14;;;;;;;12.55;5.53;;;;;;;6.80;72.55;100041.16;5010369;28;20056;-72
2022/01/15 03:49:40;;;;;;;9.82;5.30;;;;;;;6.77;72.32;100047.53;5018618;28;20038;-72
2022/01/15 03:52:08;;;;;;;12.45;4.82;;;;;;;6.77;72.90;100051.94;5020863;28;20037;-72
2022/01/15 03:54:33;;;;;;;10.07;5.75;;;;;;;6.89;72.88;100062.25;5012886;28;20042;-72
2022/01/15 03:57:00;;;;;;;9.60;5.10;;;;;;;6.85;72.80;100065.28;5009972;28;20026;-72
2022/01/15 03:59:26;;;;;;;9.02;4.75;;;;;;;6.98;72.38;100069.38;5011455;28;20042;-70
2022/01/15 04:01:51;;;;;;;10.50;5.68;;;;;;;6.99;72.61;100076.31;5012002;28;20030;-70
2022/01/15 04:04:18;;;;;;;12.05;6.22;;;;;;;7.05;72.00;100083.69;5010120;28;20104;-72
2022/01/15 04:06:43;;;;;;;11.20;5.43;;;;;;;7.17;71.40;100073.91;5001163;28;20018;-72
2022/01/15 04:09:11;;;;;;;12.95;5.80;;;;;;;7.24;70.88;100088.22;5001213;28;20275;-72
2022/01/15 04:11:37;;;;;;;14.13;5.97;;;;;;;7.05;71.64;100083.69;5012316;28;20037;-70
2022/01/15 04:14:03;;;;;;;12.10;6.72;;;;;;;7.24;72.14;100095.28;5011115;28;20042;-71
2022/01/15 04:16:29;;;;;;;12.05;6.05;;;;;;;7.23;72.05;100096.25;5013000;28;20034;-72
2022/01/15 04:18:56;;;;;;;9.65;5.50;;;;;;;7.34;71.57;100104.91;5009246;28;20052;-72
2022/01/15 04:21:21;;;;;;;12.52;6.15;;;;;;;7.18;71.71;100095.81;5009893;28;20209;-72
2022/01/15 04:23:47;;;;;;;15.00;5.97;;;;;;;7.29;71.55;100112.38;4999574;28;20037;-72
2022/01/15 04:26:12;;;;;;;14.40;6.75;;;;;;;7.39;71.31;100114.22;5000739;28;20267;-72
2022/01/15 04:28:38;;;;;;;14.07;6.00;;;;;;;7.29;71.18;100112.38;5003163;28;20023;-71
2022/01/15 04:31:07;;;;;;;11.95;5.95;;;;;;;7.17;71.50;100125.72;4988392;28;20033;-71
2022/01/15 04:33:37;;;;;;;9.20;5.25;;;;;;;7.04;72.83;100118.88;5006341;28;20038;-70
2022/01/15 04:36:05;;;;;;;13.13;6.40;;;;;;;6.83;73.50;100104.91;5006104;28;20030;-72
2022/01/15 04:38:34;;;;;;;11.55;5.68;;;;;;;6.82;72.79;100133.97;5006109;28;20041;-72
2022/01/15 04:40:59;;;;;;;11.07;5.45;;;;;;;6.75;73.18;100130.19;5006564;28;20030;-71
2022/01/15 04:43:25;;;;;;;11.32;5.80;;;;;;;6.77;72.88;100144.06;5006473;28;20034;-71
2022/01/15 04:45:50;;;;;;;14.88;7.95;;;;;;;7.02;73.09;100160.31;4988868;28;20027;-70
2022/01/15 04:48:16;;;;;;;15.57;8.65;;;;;;;7.02;73.38;100151.56;5006126;28;20038;-72
2022/01/15 04:50:42;;;;;;;17.95;9.23;;;;;;;7.28;72.34;100159.88;4988863;28;20347;-73
2022/01/15 04:53:09;;;;;;;14.73;7.57;;;;;;;7.26;73.06;100170.56;5005153;28;20034;-72
2022/01/15 04:55:35;;;;;;;18.10;7.93;;;;;;;7.02;73.49;100159.47;5015477;28;20029;-72
2022/01/15 04:58:01;;;;;;;16.13;8.75;;;;;;;6.96;73.14;100179.25;5013573;28;20033;-71
2022/01/15 05:00:26;;;;;;;18.50;9.02;;;;;;;7.18;72.51;100187.97;5014676;28;20033;-70
2022/01/15 05:02:51;;;;;;;15.82;6.63;;;;;;;6.99;73.28;100189.53;5015083;28;20141;-70
2022/01/15 05:05:17;;;;;;;14.18;7.93;;;;;;;6.99;73.04;100192.16;5014378;28;20323;-72
2022/01/15 05:07:43;;;;;;;13.27;7.70;;;;;;;7.07;72.94;100201.22;5016359;28;20030;-72
2022/01/15 05:10:11;;;;;;;19.17;10.85;;;;;;;7.07;72.39;100191.50;5013869;28;20046;-72
2022/01/15 05:15:05;;;;;;;21.38;10.65;;;;;;;7.22;72.22;100187.59;5015617;28;20037;-71
2022/01/15 05:17:31;;;;;;;18.40;9.57;;;;;;;7.29;71.81;100195.84;5007666;28;20042;-72
2022/01/15 05:19:56;;;;;;;16.48;7.78;;;;;;;7.36;71.14;100202.25;5007194;28;21491;-72
2022/01/15 05:22:22;;;;;;;13.07;6.50;;;;;;;7.41;71.04;100202.69;5014878;28;20246;-72
2022/01/15 05:24:47;;;;;;;13.98;6.82;;;;;;;7.36;70.77;100211.00;5012607;28;20029;-72
2022/01/15 05:27:13;;;;;;;14.10;6.78;;;;;;;7.14;71.13;100205.84;5013041;28;20033;-72
2022/01/15 05:29:38;;;;;;;11.77;6.60;;;;;;;7.18;71.44;100207.25;5014577;28;20049;-70
2022/01/15 05:32:04;;;;;;;14.25;6.97;;;;;;;7.32;70.66;100221.91;5023372;28;20260;-71
2022/01/15 05:34:30;;;;;;;12.23;5.88;;;;;;;7.38;70.40;100231.09;5019802;28;20325;-71
2022/01/15 05:36:55;;;;;;;13.63;6.63;;;;;;;7.59;68.91;100238.03;5015717;28;20029;-72
2022/01/15 05:39:21;;;;;;;15.25;6.55;;;;;;;7.73;69.08;100241.28;5023017;28;20040;-72
2022/01/15 05:41:46;;;;;;;12.32;6.90;;;;;;;7.72;68.55;100245.72;5019771;28;20026;-71
2022/01/15 05:44:11;;;;;;;14.38;7.40;;;;;;;7.81;68.63;100249.34;5014275;28;20054;-71
2022/01/15 05:46:37;;;;;;;12.88;6.70;;;;;;;7.85;68.28;100250.75;5014558;28;20037;-71
2022/01/15 05:49:04;;;;;;;14.60;7.43;;;;;;;7.92;68.24;100260.66;5010855;28;20368;-72
2022/01/15 05:51:30;;;;;;;14.15;8.10;;;;;;;7.95;68.02;100265.66;5014728;28;20072;-73
2022/01/15 05:54:01;;;;;;;15.25;8.32;;;;;;;7.98;67.99;100268.03;5015003;28;20042;-72
2022/01/15 05:56:27;;;;;;;16.88;8.48;;;;;;;8.02;67.86;100265.97;5012852;28;20038;-72
2022/01/15 05:58:53;;;;;;;14.38;7.53;;;;;;;8.10;67.40;100271.41;5013949;28;20057;-72
2022/01/15 06:01:19;;;;;;;18.73;9.40;;;;;;;8.08;67.23;100272.50;5015337;28;20346;-72
2022/01/15 06:03:45;;;;;;;19.40;9.48;;;;;;;8.03;67.22;100262.34;5010914;28;20311;-70
2022/01/15 06:06:10;;;;;;;20.15;9.50;;;;;;;8.02;67.48;100272.06;5018271;28;20089;-71
2022/01/15 06:08:36;;;;;;;23.42;11.00;;;;;;;8.04;67.34;100265.81;5022479;28;20014;-72
2022/01/15 06:11:01;;;;;;;33.95;11.60;;;;;;;8.10;67.34;100279.31;5018121;28;20330;-72
2022/01/15 06:13:27;;;;;;;34.55;13.07;;;;;;;8.15;67.39;100286.84;4995267;28;20279;-72
2022/01/15 06:15:52;;;;;;;24.48;10.30;;;;;;;8.14;67.64;100291.28;5008604;28;20035;-71
2022/01/15 06:18:17;;;;;;;32.67;11.57;;;;;;;8.14;68.02;100299.19;5009565;28;20033;-71
2022/01/15 06:20:43;;;;;;;22.60;9.32;;;;;;;8.08;68.40;100296.25;5014430;28;20033;-72
2022/01/15 06:23:08;;;;;;;16.67;8.68;;;;;;;8.05;69.19;100299.97;5013459;28;20029;-72
2022/01/15 06:25:34;;;;;;;16.90;9.48;;;;;;;7.96;69.67;100306.88;5014068;28;20068;-72
2022/01/15 06:27:59;;;;;;;26.40;10.05;;;;;;;7.84;69.91;100292.13;5004599;28;20029;-72
2022/01/15 06:30:25;;;;;;;45.42;20.17;;;;;;;7.93;69.92;100316.84;5011400;28;20045;-72
2022/01/15 06:32:50;;;;;;;51.38;24.55;;;;;;;7.92;69.85;100308.09;4990270;28;20022;-72
2022/01/15 06:35:18;;;;;;;53.58;25.92;;;;;;;8.04;69.42;100324.69;5013120;28;20050;-71
2022/01/15 06:37:47;;;;;;;49.78;23.38;;;;;;;8.15;69.08;100329.88;5011536;28;20093;-71
2022/01/15 06:40:14;;;;;;;59.45;25.33;;;;;;;8.25;68.97;100340.47;5009702;28;20042;-72
2022/01/15 06:42:40;;;;;;;69.88;26.67;;;;;;;8.19;69.00;100344.47;5011631;28;20018;-72
2022/01/15 06:45:06;;;;;;;22.77;12.10;;;;;;;7.34;72.79;100339.38;5012120;28;20072;-71
2022/01/15 06:47:31;;;;;;;18.77;10.15;;;;;;;6.61;76.34;100353.22;5013815;28;20021;-70
2022/01/15 06:49:57;;;;;;;32.13;15.35;;;;;;;6.21;78.12;100355.47;5004288;28;20311;-70
2022/01/15 06:52:24;;;;;;;30.63;13.35;;;;;;;6.36;77.61;100358.72;5018363;28;21249;-72
2022/01/15 06:54:50;;;;;;;31.95;13.60;;;;;;;6.31;78.17;100363.50;5013545;28;20029;-72
2022/01/15 06:57:15;;;;;;;31.58;15.63;;;;;;;6.56;77.31;100380.84;5013092;28;20602;-72
2022/01/15 06:59:44;;;;;;;38.53;19.35;;;;;;;6.62;77.72;100369.84;5011283;28;20033;-70
2022/01/15 07:02:10;;;;;;;44.72;22.20;;;;;;;6.70;78.06;100380.59;5010603;28;20029;-70
2022/01/15 07:04:36;;;;;;;40.05;20.27;;;;;;;6.62;77.65;100383.00;5011717;28;20045;-72
2022/01/15 07:07:02;;;;;;;46.10;21.17;;;;;;;7.02;76.04;100391.19;4997039;28;20033;-72
2022/01/15 07:09:27;;;;;;;38.03;19.65;;;;;;;6.96;76.49;100399.56;5012862;28;20033;-72
2022/01/15 07:11:53;;;;;;;35.05;17.10;;;;;;;6.90;76.91;100408.78;5010838;28;20493;-71
2022/01/15 07:14:18;;;;;;;30.35;16.67;;;;;;;6.94;76.69;100407.59;5011572;28;20033;-71
2022/01/15 07:16:43;;;;;;;73.82;23.88;;;;;;;6.93;77.15;100405.06;5012983;28;20049;-71
2022/01/15 07:19:09;;;;;;;64.72;21.50;;;;;;;7.09;75.07;100402.06;4994953;28;20053;-72
2022/01/15 07:21:34;;;;;;;59.00;20.80;;;;;;;7.36;74.24;100411.22;5003292;28;20038;-73
2022/01/15 07:24:00;;;;;;;57.05;21.73;;;;;;;7.41;74.50;100418.75;5002818;28;20038;-72
2022/01/15 07:26:25;;;;;;;54.08;22.13;;;;;;;7.33;74.98;100416.72;5003296;28;20038;-71
2022/01/15 07:28:51;;;;;;;65.25;26.73;;;;;;;7.60;74.13;100421.53;5003345;28;20042;-71
2022/01/15 07:31:16;;;;;;;54.58;24.80;;;;;;;7.78;73.91;100423.63;5002903;28;20046;-73
2022/01/15 07:33:42;;;;;;;51.38;24.45;;;;;;;7.97;72.94;100435.13;5001962;28;20022;-73
2022/01/15 07:36:07;;;;;;;57.78;27.02;;;;;;;7.98;73.22;100450.00;5003065;28;20097;-73
2022/01/15 07:38:33;;;;;;;54.28;28.00;;;;;;;8.15;72.67;100456.50;5003200;28;20304;-72
2022/01/15 07:40:59;;;;;;;62.67;30.65;;;;;;;8.27;71.78;100449.34;5002705;28;20053;-72
2022/01/15 07:43:26;;;;;;;95.95;43.85;;;;;;;8.39;71.54;100455.44;5002793;28;20034;-72
2022/01/15 07:45:52;;;;;;;64.63;28.67;;;;;;;8.40;71.26;100454.47;5002904;28;20054;-71
2022/01/15 07:48:17;;;;;;;40.10;19.25;;;;;;;8.35;70.92;100456.66;5002372;28;20346;-71
2022/01/15 07:50:43;;;;;;;32.63;15.40;;;;;;;8.22;71.41;100456.81;5002962;28;20346;-72
2022/01/15 07:53:09;;;;;;;34.97;15.65;;;;;;;8.24;71.42;100466.25;5002917;28;20030;-72
2022/01/15 07:55:34;;;;;;;55.60;25.13;;;;;;;8.21;71.67;100476.25;5001361;28;20275;-72
2022/01/15 07:58:00;;;;;;;31.75;15.48;;;;;;;8.15;70.60;100467.03;5001668;28;20033;-72
2022/01/15 08:00:26;;;;;;;35.05;18.80;;;;;;;8.20;69.62;100471.94;5002870;28;20089;-71
2022/01/15 08:02:51;;;;;;;43.10;22.50;;;;;;;8.43;69.03;100477.97;5005349;28;20069;-71
2022/01/15 08:05:17;;;;;;;29.17;14.85;;;;;;;8.23;68.56;100447.94;5009391;28;20258;-72
2022/01/15 08:07:43;;;;;;;21.05;10.98;;;;;;;8.21;68.51;100479.72;5008016;28;20018;-72
2022/01/15 08:10:09;;;;;;;25.60;12.38;;;;;;;8.39;68.62;100487.94;5009009;28;20259;-72
2022/01/15 08:12:46;;;;;;;27.27;13.27;;;;;;;8.64;67.79;100481.41;5009371;28;20023;-72
2022/01/15 08:15:13;;;;;;;29.15;13.60;;;;;;;8.71;67.86;100502.84;5009469;28;20045;-72
2022/01/15 08:17:39;;;;;;;29.83;15.25;;;;;;;8.75;68.33;100505.09;5008974;28;20034;-71
2022/01/15 08:20:05;;;;;;;33.92;17.60;;;;;;;8.80;68.43;100502.88;5008087;28;20049;-72
2022/01/15 08:22:30;;;;;;;37.53;18.50;;;;;;;8.83;68.84;100505.25;5009083;28;20267;-72
2022/01/15 08:24:55;;;;;;;33.67;16.88;;;;;;;8.64;69.21;100508.66;5008878;28;20030;-72
2022/01/15 08:27:21;;;;;;;37.95;17.52;;;;;;;8.66;69.85;100503.22;5008894;28;20068;-72
2022/01/15 08:29:46;;;;;;;32.28;16.33;;;;;;;8.79;69.14;100500.38;5008009;28;20025;-71
2022/01/15 08:32:12;;;;;;;30.83;14.57;;;;;;;8.79;69.10;100517.06;5008745;28;20061;-71
2022/01/15 08:34:38;;;;;;;30.40;14.35;;;;;;;8.81;68.56;100509.00;5009194;28;20035;-72
2022/01/15 08:37:03;;;;;;;25.10;13.27;;;;;;;8.67;69.05;100514.63;5008876;28;20097;-72
2022/01/15 08:39:29;;;;;;;23.83;11.95;;;;;;;8.61;68.75;100516.81;5008745;28;20045;-71
2022/01/15 08:41:54;;;;;;;23.85;12.63;;;;;;;8.54;69.13;100523.59;5008930;28;20098;-71
2022/01/15 08:44:22;;;;;;;25.13;11.63;;;;;;;8.62;68.99;100528.22;5008899;28;20323;-71
2022/01/15 08:46:48;;;;;;;20.85;11.23;;;;;;;8.53;68.80;100527.19;5008596;28;20092;-73
2022/01/15 08:49:14;;;;;;;20.40;10.82;;;;;;;8.63;67.99;100525.44;5008947;28;20336;-72
2022/01/15 08:51:39;;;;;;;20.15;11.32;;;;;;;8.60;67.70;100523.06;5008775;28;20037;-73
2022/01/15 08:54:05;;;;;;;24.45;11.43;;;;;;;8.52;68.09;100535.25;5007313;28;20072;-73
2022/01/15 08:56:30;;;;;;;23.38;11.63;;;;;;;8.52;68.24;100532.59;5008784;28;20037;-72
2022/01/15 08:58:55;;;;;;;27.35;11.05;;;;;;;8.58;68.85;100525.00;5008914;28;20034;-71
2022/01/15 09:01:21;;;;;;;27.80;12.55;;;;;;;8.78;67.89;100523.31;4991113;28;20101;-71
2022/01/15 09:03:46;;;;;;;27.58;12.90;;;;;;;8.64;68.04;100515.72;5007542;28;20038;-73
2022/01/15 09:06:12;;;;;;;28.60;13.60;;;;;;;8.87;67.88;100513.75;5008766;28;20042;-72
2022/01/15 09:08:38;;;;;;;35.03;17.52;;;;;;;9.01;67.02;100526.59;5007647;28;20054;-72
2022/01/15 09:11:03;;;;;;;42.00;21.60;;;;;;;8.98;68.11;100523.41;5008451;28;20037;-71
2022/01/15 09:13:29;;;;;;;29.38;14.38;;;;;;;9.09;66.77;100525.94;5005825;28;20026;-71
2022/01/15 09:15:55;;;;;;;31.73;14.93;;;;;;;8.93;66.96;100515.88;5005058;28;20101;-72
2022/01/15 09:18:21;;;;;;;37.13;16.58;;;;;;;9.15;66.91;100528.88;5004202;28;20029;-73
2022/01/15 09:20:47;;;;;;;26.42;13.45;;;;;;;9.08;66.64;100532.19;5005540;28;20031;-72
2022/01/15 09:23:12;;;;;;;21.40;11.40;;;;;;;8.97;67.04;100527.84;5005477;28;20038;-73
2022/01/15 09:25:38;;;;;;;24.80;13.13;;;;;;;9.31;66.23;100536.31;5005612;28;20030;-73
2022/01/15 09:30:48;;;;;;;31.80;13.90;;;;;;;9.13;65.85;100538.75;5005332;28;20041;-71
2022/01/15 09:33:15;;;;;;;30.70;12.85;;;;;;;9.14;65.87;100527.22;5005525;28;20042;-71
2022/01/15 09:35:40;;;;;;;29.20;14.00;;;;;;;9.33;66.25;100530.88;5005169;28;20108;-72
2022/01/15 09:38:06;;;;;;;25.73;12.35;;;;;;;9.50;65.64;100525.81;5005183;28;20038;-73
2022/01/15 09:40:32;;;;;;;23.90;11.88;;;;;;;9.49;65.62;100518.00;5005164;28;20038;-72
2022/01/15 09:42:58;;;;;;;26.60;13.43;;;;;;;9.75;65.26;100521.81;5005316;28;20038;-71
2022/01/15 09:45:24;;;;;;;25.10;12.88;;;;;;;9.60;65.46;100512.59;5005018;28;20039;-71
2022/01/15 09:47:58;;;;;;;25.40;12.43;;;;;;;9.50;64.88;100514.41;5009686;28;20034;-73
2022/01/15 09:50:25;;;;;;;26.67;13.30;;;;;;;9.44;65.94;100507.00;5021303;28;20042;-73
2022/01/15 09:52:53;;;;;;;34.63;15.32;;;;;;;9.47;65.43;100509.38;5023425;28;20547;-73
2022/01/15 09:55:20;;;;;;;37.58;16.70;;;;;;;9.45;66.16;100495.47;5006131;28;20029;-73
2022/01/15 09:57:45;;;;;;;41.95;17.83;;;;;;;9.59;66.09;100505.66;5023507;28;20105;-73
2022/01/15 10:00:15;;;;;;;28.08;15.50;;;;;;;9.58;66.56;100501.34;5024213;28;20310;-71
2022/01/15 10:02:42;;;;;;;31.15;14.40;;;;;;;9.72;66.25;100500.09;5001469;28;20037;-71
2022/01/15 10:05:09;;;;;;;29.65;14.98;;;;;;;9.75;66.23;100499.81;5013105;28;20652;-72
2022/01/15 10:07:34;;;;;;;33.65;16.05;;;;;;;9.69;66.03;100498.56;5015587;28;20097;-72
2022/01/15 10:10:20;;;;;;;37.65;17.33;;;;;;;9.50;66.66;100501.19;5013074;28;20044;-73
2022/01/15 10:12:46;;;;;;;29.30;15.60;;;;;;;9.31;67.07;100490.53;5012082;28;20046;-71
2022/01/15 10:15:12;;;;;;;31.80;16.55;;;;;;;9.37;68.11;100490.03;5014004;28;20034;-71
2022/01/15 10:17:40;;;;;;;32.75;16.20;;;;;;;9.38;68.98;100489.91;5014877;28;20034;-73
2022/01/15 10:20:11;;;;;;;28.13;14.75;;;;;;;9.64;68.67;100487.56;5019702;28;20037;-72
2022/01/15 10:22:45;;;;;;;24.52;13.25;;;;;;;9.91;66.78;100478.94;5022230;28;20032;-73
2022/01/15 10:25:20;;;;;;;21.30;11.73;;;;;;;9.91;64.50;100477.13;5012147;28;20042;-71
2022/01/15 10:27:53;;;;;;;25.27;11.43;;;;;;;9.80;64.21;100479.09;5002771;28;20038;-72
2022/01/15 10:30:22;;;;;;;19.48;11.65;;;;;;;9.89;63.46;100479.06;4988940;28;20340;-73
2022/01/15 10:33:06;;;;;;;20.67;10.65;;;;;;;9.92;63.73;100480.59;5011651;28;20047;-73
2022/01/15 10:35:35;;;;;;;20.55;11.82;;;;;;;9.85;63.31;100474.22;4993794;28;20060;-72
2022/01/15 10:38:17;;;;;;;22.17;11.45;;;;;;;9.72;64.64;100478.94;5013651;28;20036;-73
2022/01/15 10:40:44;;;;;;;26.38;13.13;;;;;;;9.81;64.24;100483.41;4997770;28;20040;-71
2022/01/15 10:43:11;;;;;;;21.75;11.88;;;;;;;9.60;64.47;100470.31;5014221;28;20069;-71
2022/01/15 10:45:49;;;;;;;22.80;10.85;;;;;;;9.68;63.80;100474.91;4993934;28;20112;-72
2022/01/15 10:48:35;;;;;;;32.35;13.60;;;;;;;9.75;64.04;100473.38;5012367;28;20042;-72
2022/01/15 10:51:05;;;;;;;30.15;15.27;;;;;;;9.87;63.82;100465.16;5011201;28;20263;-73
2022/01/15 10:53:37;;;;;;;23.55;13.43;;;;;;;10.14;62.70;100464.44;5014851;28;20216;-73
2022/01/15 10:56:04;;;;;;;22.70;11.77;;;;;;;10.20;62.29;100457.78;5021892;28;20335;-72
2022/01/15 10:58:30;;;;;;;17.95;8.13;;;;;;;10.42;60.22;100454.00;5018127;28;20286;-71
2022/01/15 11:00:55;;;;;;;12.90;7.82;;;;;;;10.31;59.51;100454.97;5010599;28;20040;-71
2022/01/15 11:03:22;;;;;;;13.18;6.47;;;;;;;10.33;59.88;100450.34;5011530;28;20033;-72
2022/01/15 11:05:49;;;;;;;14.32;7.78;;;;;;;10.48;58.58;100448.94;5013908;28;20061;-73
2022/01/15 11:08:20;;;;;;;12.52;7.20;;;;;;;10.55;58.45;100449.22;5013281;28;20083;-72
2022/01/15 11:10:51;;;;;;;16.20;8.80;;;;;;;10.65;58.87;100441.22;5012131;28;20038;-73
2022/01/15 11:13:39;;;;;;;14.73;8.23;;;;;;;10.85;58.02;100442.81;5003809;28;20346;-71
2022/01/15 11:16:08;;;;;;;30.48;13.68;;;;;;;11.02;58.87;100439.38;5019670;28;20097;-71
2022/01/15 11:18:37;;;;;;;26.67;13.35;;;;;;;10.88;60.26;100430.09;5010192;28;20030;-73
2022/01/15 11:21:08;;;;;;;19.73;10.85;;;;;;;10.88;58.72;100440.69;5010543;28;20045;-73
2022/01/15 11:23:36;;;;;;;21.23;11.20;;;;;;;10.88;59.56;100431.91;5014488;28;20340;-72
2022/01/15 11:26:04;;;;;;;30.40;12.07;;;;;;;10.93;58.64;100431.47;5011900;28;20037;-72
2022/01/15 11:28:33;;;;;;;23.00;10.35;;;;;;;10.51;58.94;100416.06;5013230;28;20384;-73
2022/01/15 11:31:01;;;;;;;21.83;9.93;;;;;;;10.38;60.29;100423.44;5011650;28;20147;-72
2022/01/15 11:33:30;;;;;;;16.73;9.18;;;;;;;10.57;60.70;100428.72;5011028;28;20030;-71
2022/01/15 11:35:56;;;;;;;22.08;9.30;;;;;;;10.41;59.62;100415.25;5010465;28;20041;-71
2022/01/15 11:38:33;;;;;;;15.48;8.43;;;;;;;10.28;59.67;100422.66;5012076;28;20315;-71
2022/01/15 11:40:59;;;;;;;17.83;9.55;;;;;;;10.44;59.37;100418.44;5011541;28;20038;-72
2022/01/15 11:43:24;;;;;;;15.98;9.20;;;;;;;10.50;60.43;100422.31;5011423;28;20197;-72
2022/01/15 11:45:54;;;;;;;17.67;8.95;;;;;;;10.30;60.58;100410.09;5013060;28;20240;-73
2022/01/15 11:48:23;;;;;;;15.75;8.90;;;;;;;10.25;61.07;100421.13;5011267;28;20052;-71